Time;durP1;ratioP1;P1;durP2;ratioP2;P2;SDS_P1;SDS_P2;PMS_P1;PMS_P2;Temp;Humidity;BMP_temperature;BMP_pressure;BME280_temperature;BME280_humidity;BME280_pressure;Samples;Min_cycle;Max_cycle;Signal;HPM_P1;HPM_P2
2022/03/07 00:00:45;;;;;;;13.98;10.55;;;9.60;63.50;;;;;;5029957;28;20061;-77
2022/03/07 00:03:10;;;;;;;17.88;11.00;;;9.60;63.50;;;;;;5028930;28;20033;-77
2022/03/07 00:05:36;;;;;;;16.35;11.27;;;9.60;63.60;;;;;;5028927;28;20038;-75
2022/03/07 00:08:02;;;;;;;23.10;11.48;;;9.60;63.60;;;;;;5029718;28;20025;-76
2022/03/07 00:10:27;;;;;;;17.60;10.63;;;9.60;63.70;;;;;;5029518;28;20029;-77
2022/03/07 00:12:53;;;;;;;15.30;11.65;;;9.60;63.60;;;;;;5028041;28;20536;-77
2022/03/07 00:15:19;;;;;;;15.45;10.68;;;9.60;63.70;;;;;;5028656;28;20060;-77
2022/03/07 00:17:44;;;;;;;14.82;11.15;;;9.60;63.60;;;;;;5029046;28;20032;-77
2022/03/07 00:20:11;;;;;;;17.63;10.82;;;9.60;63.60;;;;;;5029274;28;20040;-76
2022/03/07 00:22:36;;;;;;;16.70;10.70;;;9.60;63.50;;;;;;5029513;28;20040;-77
2022/03/07 00:25:02;;;;;;;14.13;10.45;;;9.60;63.50;;;;;;5028280;28;20029;-79
2022/03/07 00:27:27;;;;;;;15.50;10.85;;;9.60;63.50;;;;;;5028653;28;20022;-78
2022/03/07 00:29:53;;;;;;;15.60;10.80;;;9.60;63.60;;;;;;5028146;28;20052;-78
2022/03/07 00:32:18;;;;;;;13.18;9.85;;;9.60;63.60;;;;;;5028201;28;20116;-77
2022/03/07 00:34:44;;;;;;;14.15;11.32;;;9.60;63.60;;;;;;5029322;28;20053;-75
2022/03/07 00:37:10;;;;;;;15.60;10.63;;;9.70;63.70;;;;;;5029306;28;20025;-76
2022/03/07 00:39:35;;;;;;;15.93;10.57;;;9.60;63.60;;;;;;5029005;28;20843;-76
2022/03/07 00:42:01;;;;;;;13.15;10.60;;;9.60;63.60;;;;;;5028226;28;20034;-76
2022/03/07 00:44:26;;;;;;;15.80;11.15;;;9.60;63.60;;;;;;5029035;28;20180;-76
2022/03/07 00:46:52;;;;;;;14.93;10.55;;;9.60;63.70;;;;;;5027832;28;20022;-77
2022/03/07 00:49:17;;;;;;;14.38;11.00;;;9.60;63.70;;;;;;5027958;28;20018;-77
2022/03/07 00:51:43;;;;;;;11.93;10.32;;;9.60;63.70;;;;;;5027587;28;20045;-77
2022/03/07 00:54:08;;;;;;;15.57;10.70;;;9.60;63.70;;;;;;5027551;28;20514;-78
2022/03/07 00:56:34;;;;;;;17.08;10.63;;;9.60;63.70;;;;;;5028216;28;20025;-77
2022/03/07 00:58:59;;;;;;;15.63;10.90;;;9.60;63.70;;;;;;5029068;28;20033;-76
2022/03/07 01:01:25;;;;;;;13.75;11.07;;;9.60;63.70;;;;;;5027705;28;20124;-77
2022/03/07 01:03:51;;;;;;;27.13;11.75;;;9.60;63.70;;;;;;5029112;28;20040;-77
2022/03/07 01:06:16;;;;;;;25.05;11.30;;;9.60;63.70;;;;;;5027946;28;20025;-77
2022/03/07 01:08:42;;;;;;;21.52;11.15;;;9.50;63.60;;;;;;5029100;28;20848;-77
2022/03/07 01:11:07;;;;;;;33.90;11.55;;;9.50;63.70;;;;;;5028466;28;20031;-77
2022/03/07 01:13:33;;;;;;;25.88;11.27;;;9.60;63.80;;;;;;5027483;28;20406;-77
2022/03/07 01:15:59;;;;;;;53.00;12.50;;;9.60;64.00;;;;;;5027628;28;20502;-77
2022/03/07 01:18:24;;;;;;;37.28;13.38;;;9.60;64.00;;;;;;5028767;28;20103;-77
2022/03/07 01:20:52;;;;;;;29.73;11.63;;;9.60;63.90;;;;;;5026771;28;20120;-78
2022/03/07 01:23:17;;;;;;;30.88;12.35;;;9.60;63.80;;;;;;5028288;28;20044;-77
2022/03/07 01:25:43;;;;;;;30.00;11.93;;;9.60;63.80;;;;;;5026180;28;20112;-77
2022/03/07 01:28:08;;;;;;;20.33;11.80;;;9.60;63.90;;;;;;5028073;28;20125;-76
2022/03/07 01:30:34;;;;;;;22.60;11.48;;;9.60;63.80;;;;;;5027085;28;20034;-77
2022/03/07 01:32:59;;;;;;;15.90;11.13;;;9.60;63.80;;;;;;5028217;28;20040;-77
2022/03/07 01:35:25;;;;;;;14.85;11.02;;;9.60;63.80;;;;;;5028151;28;20029;-77
2022/03/07 01:37:51;;;;;;;20.38;11.73;;;9.60;63.80;;;;;;5028098;28;20064;-77
2022/03/07 01:40:16;;;;;;;19.30;11.05;;;9.60;63.90;;;;;;5026758;28;20083;-77
2022/03/07 01:42:42;;;;;;;15.00;11.07;;;9.50;63.80;;;;;;5026341;28;20033;-77
2022/03/07 01:45:16;;;;;;;19.10;10.93;;;9.60;64.00;;;;;;5026550;28;20065;-77
2022/03/07 01:47:43;;;;;;;19.92;11.07;;;9.60;63.90;;;;;;5027885;28;20029;-78
2022/03/07 01:50:11;;;;;;;15.95;11.40;;;9.50;63.90;;;;;;5026328;28;20035;-77
2022/03/07 01:52:42;;;;;;;18.33;11.45;;;9.50;63.90;;;;;;5026129;28;20080;-77
2022/03/07 01:55:09;;;;;;;16.55;10.80;;;9.60;63.90;;;;;;5026855;28;20041;-77
2022/03/07 01:57:37;;;;;;;15.52;11.20;;;9.50;63.90;;;;;;5026707;28;20049;-79
2022/03/07 02:00:08;;;;;;;19.70;11.13;;;9.60;63.90;;;;;;5027742;28;20406;-77
2022/03/07 02:02:33;;;;;;;15.87;11.53;;;9.60;63.90;;;;;;5026582;28;20026;-76
2022/03/07 02:04:59;;;;;;;14.18;11.20;;;9.60;64.00;;;;;;5026578;28;20025;-76
2022/03/07 02:07:24;;;;;;;63.47;13.18;;;9.60;64.00;;;;;;5026264;28;20563;-77
2022/03/07 02:09:50;;;;;;;219.32;21.90;;;9.60;64.10;;;;;;5027385;28;20071;-76
2022/03/07 02:12:16;;;;;;;28.33;12.65;;;9.50;64.00;;;;;;5026331;28;20052;-76
2022/03/07 02:14:41;;;;;;;15.52;11.65;;;9.60;64.10;;;;;;5027360;28;20044;-77
2022/03/07 02:17:07;;;;;;;24.45;11.70;;;9.60;64.10;;;;;;5027521;28;20025;-77
2022/03/07 02:19:34;;;;;;;26.23;11.18;;;9.50;64.00;;;;;;5027138;28;20453;-78
2022/03/07 02:22:01;;;;;;;19.23;11.35;;;9.50;64.00;;;;;;5027158;28;20026;-77
2022/03/07 02:24:28;;;;;;;26.27;12.13;;;9.60;64.10;;;;;;5027589;28;20053;-77
2022/03/07 02:27:05;;;;;;;17.25;11.18;;;9.50;64.00;;;;;;5026946;28;20041;-76
2022/03/07 02:29:32;;;;;;;19.48;11.15;;;9.50;64.00;;;;;;5026775;28;20509;-77
2022/03/07 02:31:58;;;;;;;17.90;10.90;;;9.50;64.00;;;;;;5027318;28;20040;-77
2022/03/07 02:34:24;;;;;;;18.02;10.98;;;9.50;64.00;;;;;;5027086;28;20483;-77
2022/03/07 02:36:50;;;;;;;13.52;10.90;;;9.50;64.00;;;;;;5026576;28;20487;-78
2022/03/07 02:39:15;;;;;;;13.50;10.35;;;9.50;64.10;;;;;;5007303;28;20115;-76
2022/03/07 02:41:41;;;;;;;13.23;10.02;;;9.60;64.20;;;;;;5006359;28;20037;-77
2022/03/07 02:44:07;;;;;;;16.02;11.00;;;9.50;64.10;;;;;;5018429;28;20030;-77
2022/03/07 02:46:33;;;;;;;17.52;11.05;;;9.50;64.10;;;;;;5026419;28;20033;-77
2022/03/07 02:48:59;;;;;;;14.52;10.10;;;9.50;64.10;;;;;;5026664;28;20487;-77
2022/03/07 02:51:24;;;;;;;15.52;11.07;;;9.50;64.10;;;;;;5026786;28;20029;-77
2022/03/07 02:53:50;;;;;;;14.80;9.82;;;9.50;64.10;;;;;;5025473;28;20112;-77
2022/03/07 02:56:17;;;;;;;13.85;9.95;;;9.50;64.10;;;;;;5025898;28;20061;-77
2022/03/07 02:58:43;;;;;;;15.10;10.00;;;9.50;64.10;;;;;;5026929;28;20037;-77
2022/03/07 03:01:08;;;;;;;15.27;10.07;;;9.50;64.10;;;;;;5025369;28;20033;-77
2022/03/07 03:03:34;;;;;;;12.07;9.93;;;9.50;64.20;;;;;;5026812;28;20069;-77
2022/03/07 03:05:59;;;;;;;14.13;10.13;;;9.50;64.20;;;;;;5026921;28;20036;-77
2022/03/07 03:08:25;;;;;;;15.02;10.10;;;9.50;64.10;;;;;;5025543;28;20034;-77
2022/03/07 03:10:52;;;;;;;16.35;10.48;;;9.50;64.10;;;;;;5026507;28;20041;-77
2022/03/07 03:13:20;;;;;;;12.15;9.88;;;9.50;64.20;;;;;;5025835;28;20056;-76
2022/03/07 03:15:46;;;;;;;14.38;9.18;;;9.50;64.20;;;;;;5025492;28;20025;-76
2022/03/07 03:18:12;;;;;;;12.45;9.43;;;9.50;64.20;;;;;;5027139;28;20038;-77
2022/03/07 03:20:39;;;;;;;12.48;9.75;;;9.50;64.20;;;;;;5025599;28;20061;-77
2022/03/07 03:23:04;;;;;;;11.77;9.43;;;9.50;64.20;;;;;;5026546;28;20392;-78
2022/03/07 03:25:30;;;;;;;12.57;9.68;;;9.50;64.20;;;;;;5026631;28;20100;-78
2022/03/07 03:27:55;;;;;;;14.38;9.57;;;9.50;64.20;;;;;;5025897;28;20120;-77
2022/03/07 03:30:21;;;;;;;13.32;9.80;;;9.50;64.30;;;;;;5025027;28;20081;-77
2022/03/07 03:32:47;;;;;;;13.77;10.40;;;9.50;64.30;;;;;;5021441;28;20061;-77
2022/03/07 03:35:12;;;;;;;12.93;9.48;;;9.50;64.30;;;;;;5016421;28;20052;-77
2022/03/07 03:37:38;;;;;;;13.38;9.88;;;9.50;64.20;;;;;;5018953;28;20091;-77
2022/03/07 03:40:09;;;;;;;12.43;9.32;;;9.50;64.80;;;;;;5024917;28;20057;-77
2022/03/07 03:42:34;;;;;;;13.02;9.60;;;9.50;64.30;;;;;;5025116;28;20060;-76
2022/03/07 03:45:00;;;;;;;11.30;8.98;;;9.50;64.30;;;;;;5026388;28;20467;-77
2022/03/07 03:47:26;;;;;;;11.10;8.90;;;9.50;64.30;;;;;;5025450;28;20036;-77
2022/03/07 03:49:51;;;;;;;13.20;8.80;;;9.50;64.30;;;;;;5027998;28;20030;-77
2022/03/07 03:52:17;;;;;;;11.48;9.05;;;9.50;64.30;;;;;;5028519;28;20474;-77
2022/03/07 03:54:42;;;;;;;12.93;9.45;;;9.50;64.30;;;;;;5028274;28;20041;-77
2022/03/07 03:57:08;;;;;;;11.73;9.07;;;9.50;64.30;;;;;;5030298;28;20064;-77
2022/03/07 03:59:34;;;;;;;10.68;8.38;;;9.50;64.30;;;;;;5029675;28;20068;-78
2022/03/07 04:02:00;;;;;;;11.77;9.15;;;9.50;64.30;;;;;;5029775;28;20057;-78
2022/03/07 04:04:26;;;;;;;12.60;9.32;;;9.50;64.40;;;;;;5029651;28;20044;-77
2022/03/07 04:06:52;;;;;;;11.90;9.13;;;9.50;64.40;;;;;;5028740;28;20022;-78
2022/03/07 04:09:21;;;;;;;11.07;8.48;;;9.50;64.40;;;;;;5027771;28;20025;-78
2022/03/07 04:11:47;;;;;;;12.85;8.77;;;9.50;64.50;;;;;;5029507;28;20471;-78
2022/03/07 04:14:14;;;;;;;11.18;8.48;;;9.50;64.50;;;;;;5029431;28;20056;-78
2022/03/07 04:16:40;;;;;;;12.18;9.10;;;9.50;64.50;;;;;;5028190;28;20087;-76
2022/03/07 04:19:07;;;;;;;13.32;8.88;;;9.50;64.50;;;;;;5028371;28;20574;-77
2022/03/07 04:21:33;;;;;;;10.32;8.25;;;9.50;65.00;;;;;;5029221;28;20029;-77
2022/03/07 04:23:59;;;;;;;12.32;8.88;;;9.50;64.40;;;;;;5027836;28;20589;-76
2022/03/07 04:26:25;;;;;;;10.88;8.13;;;9.50;64.40;;;;;;5028108;28;20029;-77
2022/03/07 04:28:51;;;;;;;12.52;8.43;;;9.50;64.30;;;;;;5027590;28;20502;-78
2022/03/07 04:31:16;;;;;;;11.45;8.18;;;9.50;64.40;;;;;;5027581;28;20030;-77
2022/03/07 04:33:42;;;;;;;10.85;8.60;;;9.50;64.40;;;;;;5028843;28;20042;-77
2022/03/07 04:36:09;;;;;;;10.07;8.48;;;9.50;64.40;;;;;;5029354;28;20029;-78
2022/03/07 04:38:35;;;;;;;13.48;8.57;;;9.50;64.40;;;;;;5027634;28;20061;-77
2022/03/07 04:41:01;;;;;;;11.15;8.65;;;9.50;65.00;;;;;;5029224;28;20088;-76
2022/03/07 04:43:26;;;;;;;10.93;8.70;;;9.50;64.50;;;;;;5027135;28;20029;-76
2022/03/07 04:45:52;;;;;;;10.50;8.10;;;9.50;64.50;;;;;;5029073;28;20025;-77
2022/03/07 04:48:19;;;;;;;10.95;8.48;;;9.40;64.50;;;;;;5028556;28;20033;-77
2022/03/07 04:50:45;;;;;;;10.70;8.50;;;9.50;64.60;;;;;;5028704;28;20467;-77
2022/03/07 04:53:11;;;;;;;11.18;8.15;;;9.50;65.10;;;;;;5027168;28;20035;-77
2022/03/07 04:55:36;;;;;;;10.23;8.73;;;9.50;64.60;;;;;;5028938;28;20414;-78
2022/03/07 04:58:02;;;;;;;10.32;8.25;;;9.40;64.60;;;;;;5027545;28;20029;-77
2022/03/07 05:00:29;;;;;;;11.35;8.13;;;9.50;64.60;;;;;;5026717;28;20029;-77
2022/03/07 05:02:54;;;;;;;11.35;8.70;;;9.50;64.60;;;;;;5028711;28;20029;-77
2022/03/07 05:05:20;;;;;;;11.43;8.57;;;9.50;64.60;;;;;;5028318;28;20845;-77
2022/03/07 05:07:49;;;;;;;10.05;8.40;;;9.50;64.60;;;;;;5026881;28;20387;-77
2022/03/07 05:10:15;;;;;;;10.18;8.45;;;9.50;64.60;;;;;;5028304;28;20017;-77
2022/03/07 05:12:40;;;;;;;11.02;8.57;;;9.50;64.70;;;;;;5027153;28;20506;-77
2022/03/07 05:15:06;;;;;;;11.18;8.48;;;9.50;64.70;;;;;;5026833;28;20061;-76
2022/03/07 05:17:48;;;;;;;14.63;8.70;;;9.50;64.70;;;;;;5026930;28;20044;-78
2022/03/07 05:20:14;;;;;;;;;;;9.50;65.30;;;;;;5027719;28;20041;-77
2022/03/07 05:22:40;;;;;;;11.68;8.23;;;9.50;65.30;;;;;;5028016;28;19917;-77
2022/03/07 05:25:07;;;;;;;11.68;8.25;;;9.50;64.60;;;;;;5026762;28;20148;-77
2022/03/07 05:27:32;;;;;;;10.48;8.18;;;9.50;64.70;;;;;;5027597;28;20437;-78
2022/03/07 05:29:58;;;;;;;10.43;8.02;;;9.50;64.70;;;;;;5027645;28;20029;-77
2022/03/07 05:32:23;;;;;;;11.43;8.20;;;9.50;64.70;;;;;;5025675;28;20029;-78
2022/03/07 05:34:49;;;;;;;11.40;8.05;;;9.50;64.70;;;;;;5026823;28;20040;-77
2022/03/07 05:37:15;;;;;;;13.07;8.40;;;9.50;64.70;;;;;;5027713;28;20017;-77
2022/03/07 05:39:41;;;;;;;10.10;8.23;;;9.50;64.70;;;;;;5026205;28;20036;-78
2022/03/07 05:42:06;;;;;;;9.80;7.95;;;9.40;64.70;;;;;;5026925;28;20025;-77
2022/03/07 05:44:32;;;;;;;9.82;7.88;;;9.50;64.80;;;;;;5023189;28;20032;-75
2022/03/07 05:46:58;;;;;;;10.45;8.10;;;9.40;64.80;;;;;;5029417;28;20135;-76
2022/03/07 05:49:24;;;;;;;9.27;8.07;;;9.40;64.70;;;;;;5028175;28;20061;-77
2022/03/07 05:51:50;;;;;;;10.73;7.90;;;9.40;64.70;;;;;;5028505;28;20049;-76
2022/03/07 05:54:15;;;;;;;11.20;8.43;;;9.50;64.80;;;;;;5029960;28;20053;-78
2022/03/07 05:56:41;;;;;;;9.82;8.00;;;9.50;64.80;;;;;;5029531;28;20033;-77
2022/03/07 05:59:06;;;;;;;11.20;8.00;;;9.40;64.70;;;;;;5029042;28;20022;-77
2022/03/07 06:01:32;;;;;;;10.13;7.75;;;9.40;64.70;;;;;;5027865;28;20029;-77
2022/03/07 06:03:57;;;;;;;11.57;7.85;;;9.50;64.70;;;;;;5027081;28;20080;-77
2022/03/07 06:06:23;;;;;;;10.20;7.95;;;9.40;64.70;;;;;;5019553;28;20017;-76
2022/03/07 06:08:48;;;;;;;10.57;8.10;;;9.50;64.70;;;;;;5028200;28;20786;-76
2022/03/07 06:11:14;;;;;;;10.77;8.57;;;9.40;64.60;;;;;;5027264;28;20029;-75
2022/03/07 06:13:39;;;;;;;9.90;8.07;;;9.50;64.70;;;;;;5027532;28;20033;-76
2022/03/07 06:16:06;;;;;;;11.18;7.90;;;9.50;64.70;;;;;;5027468;28;20033;-75
2022/03/07 06:18:32;;;;;;;9.85;7.53;;;9.50;64.70;;;;;;5028874;28;20831;-77
2022/03/07 06:20:57;;;;;;;10.70;8.55;;;9.50;64.60;;;;;;5027711;28;20683;-77
2022/03/07 06:23:23;;;;;;;12.38;8.40;;;9.50;64.60;;;;;;5029005;28;20040;-77
2022/03/07 06:25:49;;;;;;;11.32;8.00;;;9.50;64.60;;;;;;5029200;28;20021;-76
2022/03/07 06:28:15;;;;;;;12.55;8.40;;;9.50;64.70;;;;;;5028633;28;20096;-79
2022/03/07 06:30:40;;;;;;;12.25;8.10;;;9.50;64.60;;;;;;5027977;28;20774;-77
2022/03/07 06:33:06;;;;;;;12.98;8.40;;;9.50;64.60;;;;;;5027458;28;20088;-75
2022/03/07 06:35:31;;;;;;;13.13;8.35;;;9.50;64.70;;;;;;5027830;28;20025;-76
2022/03/07 06:37:57;;;;;;;14.48;8.13;;;9.50;64.70;;;;;;5028326;28;20034;-77
2022/03/07 06:40:23;;;;;;;12.13;7.93;;;9.50;64.60;;;;;;5028723;28;20064;-78
2022/03/07 06:42:49;;;;;;;12.98;8.57;;;9.50;64.60;;;;;;5027829;28;20037;-76
2022/03/07 06:45:16;;;;;;;11.30;8.65;;;9.50;64.60;;;;;;5027007;28;20083;-77
2022/03/07 06:47:44;;;;;;;13.20;8.32;;;9.50;64.50;;;;;;5030196;28;20600;-78
2022/03/07 06:50:10;;;;;;;10.75;8.38;;;9.50;64.40;;;;;;5029285;28;20017;-77
2022/03/07 06:52:36;;;;;;;11.63;8.35;;;9.50;64.50;;;;;;5028292;28;20388;-79
2022/03/07 06:55:03;;;;;;;12.05;8.25;;;9.50;64.40;;;;;;5030077;28;20105;-78
2022/03/07 06:57:29;;;;;;;12.68;8.02;;;9.60;64.40;;;;;;5029425;28;20107;-78
2022/03/07 06:59:54;;;;;;;11.90;8.40;;;9.60;64.30;;;;;;5029479;28;20080;-78
2022/03/07 07:02:20;;;;;;;10.95;8.30;;;9.60;64.20;;;;;;5029191;28;20025;-78
2022/03/07 07:04:45;;;;;;;11.02;8.15;;;9.60;64.20;;;;;;5030846;28;20029;-76
2022/03/07 07:07:11;;;;;;;12.20;8.48;;;9.70;64.20;;;;;;5029770;28;20104;-75
2022/03/07 07:09:37;;;;;;;10.35;8.10;;;9.70;64.10;;;;;;5028301;28;20064;-77
2022/03/07 07:12:03;;;;;;;11.43;7.78;;;9.70;64.10;;;;;;5028135;28;20483;-76
2022/03/07 07:14:29;;;;;;;11.40;8.45;;;9.70;64.10;;;;;;5027827;28;20061;-76
2022/03/07 07:16:55;;;;;;;12.82;8.40;;;9.70;64.10;;;;;;5029625;28;20403;-78
2022/03/07 07:19:21;;;;;;;11.27;8.18;;;9.80;64.10;;;;;;5031181;28;20021;-77
2022/03/07 07:21:46;;;;;;;10.45;8.40;;;9.80;64.10;;;;;;5028213;28;20095;-81
2022/03/07 07:24:12;;;;;;;10.50;8.25;;;9.80;64.00;;;;;;5030170;28;20029;-78
2022/03/07 07:26:37;;;;;;;13.80;8.27;;;9.90;64.10;;;;;;5029734;28;20021;-75
2022/03/07 07:29:04;;;;;;;15.02;8.43;;;9.90;64.30;;;;;;5030925;28;20053;-76
2022/03/07 07:31:29;;;;;;;11.90;8.18;;;9.90;64.40;;;;;;5031288;28;20546;-78
2022/03/07 07:33:55;;;;;;;11.70;8.45;;;10.00;64.40;;;;;;5031270;28;20071;-78
2022/03/07 07:36:20;;;;;;;14.20;8.70;;;10.00;64.10;;;;;;5030266;28;20061;-77
2022/03/07 07:38:46;;;;;;;15.55;8.48;;;10.00;64.10;;;;;;5031383;28;20478;-77
2022/03/07 07:41:11;;;;;;;10.90;8.05;;;10.10;64.40;;;;;;5029835;28;20052;-76
2022/03/07 07:43:37;;;;;;;11.40;8.70;;;10.10;64.60;;;;;;5030196;28;20056;-77
2022/03/07 07:46:03;;;;;;;11.52;8.15;;;10.10;64.90;;;;;;5031180;28;20033;-76
2022/03/07 07:48:28;;;;;;;10.57;8.55;;;10.20;65.00;;;;;;5031202;28;20050;-78
2022/03/07 07:50:54;;;;;;;11.85;8.50;;;10.20;65.10;;;;;;5029535;28;20060;-77
2022/03/07 07:53:19;;;;;;;9.93;8.00;;;10.20;65.00;;;;;;5030085;28;20037;-78
2022/03/07 07:55:45;;;;;;;10.57;8.05;;;10.30;65.00;;;;;;5030005;28;20041;-77
2022/03/07 07:58:10;;;;;;;10.80;8.52;;;10.30;64.80;;;;;;5030932;28;20025;-76
2022/03/07 08:00:36;;;;;;;13.43;8.88;;;10.30;64.70;;;;;;5030598;28;20029;-78
2022/03/07 08:03:02;;;;;;;10.60;7.75;;;10.30;64.60;;;;;;5029333;28;20033;-77
2022/03/07 08:05:27;;;;;;;10.50;8.13;;;10.40;64.50;;;;;;5029666;28;20029;-77
2022/03/07 08:07:53;;;;;;;10.90;8.70;;;10.40;64.50;;;;;;5030587;28;20070;-77
2022/03/07 08:10:18;;;;;;;12.50;8.50;;;10.50;64.70;;;;;;5028899;28;20475;-78
2022/03/07 08:12:45;;;;;;;12.00;8.23;;;10.50;64.70;;;;;;5029208;28;20033;-77
2022/03/07 08:15:13;;;;;;;10.65;8.63;;;10.50;64.70;;;;;;5028976;28;20026;-77
2022/03/07 08:17:46;;;;;;;10.73;8.50;;;10.50;65.00;;;;;;5029397;28;20068;-78
2022/03/07 08:20:13;;;;;;;11.73;8.45;;;10.50;64.90;;;;;;5030237;28;20541;-78
2022/03/07 08:22:39;;;;;;;10.05;8.60;;;10.60;65.00;;;;;;5029187;28;20031;-78
2022/03/07 08:25:05;;;;;;;10.95;8.20;;;10.60;65.00;;;;;;5030065;28;20079;-77
2022/03/07 08:27:32;;;;;;;12.23;8.73;;;10.60;64.90;;;;;;5029065;28;20337;-76
2022/03/07 08:29:58;;;;;;;10.70;7.97;;;10.70;64.90;;;;;;5030018;28;20017;-77
2022/03/07 08:32:23;;;;;;;10.05;8.52;;;10.70;64.90;;;;;;5028700;28;20034;-78
2022/03/07 08:34:49;;;;;;;10.57;8.50;;;10.70;64.90;;;;;;5028117;28;20064;-78
2022/03/07 08:37:15;;;;;;;10.68;8.30;;;10.70;64.80;;;;;;5029037;28;20026;-78
2022/03/07 08:39:40;;;;;;;12.32;8.52;;;10.70;64.80;;;;;;5028525;28;20029;-78
2022/03/07 08:42:06;;;;;;;10.45;8.52;;;10.80;64.80;;;;;;5030165;28;20045;-77
2022/03/07 08:44:31;;;;;;;10.23;8.63;;;10.80;64.70;;;;;;5029935;28;20036;-78
2022/03/07 08:46:57;;;;;;;10.50;8.98;;;10.80;64.80;;;;;;5029018;28;20029;-78
2022/03/07 08:49:22;;;;;;;10.68;9.00;;;10.80;64.70;;;;;;5028594;28;20025;-77
2022/03/07 08:51:48;;;;;;;10.25;8.70;;;10.80;64.70;;;;;;5028500;28;20029;-78
2022/03/07 08:54:17;;;;;;;13.05;8.93;;;10.90;64.70;;;;;;5028502;28;20048;-77
2022/03/07 08:56:43;;;;;;;10.07;8.65;;;10.90;64.70;;;;;;5029552;28;20033;-77
2022/03/07 08:59:09;;;;;;;10.80;9.00;;;10.90;64.60;;;;;;5028062;28;20037;-77
2022/03/07 09:01:34;;;;;;;10.55;8.95;;;10.90;64.60;;;;;;5028069;28;20029;-76
2022/03/07 09:04:00;;;;;;;11.68;9.23;;;10.90;64.60;;;;;;5029503;28;20445;-77
2022/03/07 09:06:25;;;;;;;11.70;9.50;;;10.90;64.60;;;;;;5027945;28;20494;-77
2022/03/07 09:08:51;;;;;;;11.15;9.43;;;10.90;64.50;;;;;;5029322;28;20025;-77
2022/03/07 09:11:16;;;;;;;10.52;8.77;;;11.00;64.50;;;;;;5027504;28;20462;-76
2022/03/07 09:13:42;;;;;;;11.05;9.13;;;11.00;64.50;;;;;;5027408;28;20071;-77
2022/03/07 09:16:07;;;;;;;11.70;9.02;;;10.90;64.40;;;;;;5028998;28;20075;-78
2022/03/07 09:18:33;;;;;;;11.90;9.48;;;11.00;64.40;;;;;;5028101;28;20510;-77
2022/03/07 09:20:59;;;;;;;11.13;9.23;;;11.00;64.40;;;;;;5027364;28;20040;-77
2022/03/07 09:23:27;;;;;;;11.60;9.20;;;11.00;64.30;;;;;;5029002;28;20443;-77
2022/03/07 09:25:52;;;;;;;11.68;9.70;;;11.00;64.30;;;;;;5027997;28;20064;-78
2022/03/07 09:28:18;;;;;;;11.98;9.18;;;11.00;64.30;;;;;;5027748;28;20814;-77
2022/03/07 09:30:43;;;;;;;12.15;8.82;;;11.10;64.30;;;;;;5028868;28;20056;-78
2022/03/07 09:33:09;;;;;;;11.27;9.35;;;11.10;64.30;;;;;;5028284;28;20402;-76
2022/03/07 09:35:34;;;;;;;11.57;9.27;;;11.10;64.30;;;;;;5027748;28;20017;-78
2022/03/07 09:38:00;;;;;;;13.25;9.60;;;11.10;64.30;;;;;;5027655;28;20057;-77
2022/03/07 09:40:26;;;;;;;11.30;9.52;;;11.10;64.30;;;;;;5027178;28;20124;-78
2022/03/07 09:42:52;;;;;;;12.30;9.30;;;11.10;64.30;;;;;;5028743;28;20033;-77
2022/03/07 09:45:19;;;;;;;11.38;8.88;;;11.10;64.30;;;;;;5026840;28;20053;-77
2022/03/07 09:47:45;;;;;;;11.15;9.07;;;11.20;64.30;;;;;;5028537;28;20037;-75
2022/03/07 09:50:11;;;;;;;11.13;9.30;;;11.20;64.30;;;;;;5027271;28;20017;-77
2022/03/07 09:52:37;;;;;;;11.90;9.43;;;11.20;64.20;;;;;;5027303;28;20119;-78
2022/03/07 09:55:04;;;;;;;11.82;9.30;;;11.20;64.30;;;;;;5027525;28;20129;-78
2022/03/07 09:57:30;;;;;;;12.32;8.95;;;11.20;64.20;;;;;;5028367;28;20600;-77
2022/03/07 09:59:56;;;;;;;10.85;9.05;;;11.20;64.20;;;;;;5027087;28;20033;-79
2022/03/07 10:02:25;;;;;;;11.18;9.30;;;11.20;64.20;;;;;;5027126;28;20511;-77
2022/03/07 10:04:51;;;;;;;11.48;9.30;;;11.20;64.20;;;;;;5028399;28;20446;-78
2022/03/07 10:07:17;;;;;;;11.63;8.98;;;11.20;64.10;;;;;;5028294;28;20376;-77
2022/03/07 10:09:44;;;;;;;11.02;9.32;;;11.30;64.10;;;;;;5028066;28;20040;-77
2022/03/07 10:12:10;;;;;;;12.63;9.52;;;11.30;64.10;;;;;;5026973;28;20029;-78
2022/03/07 10:14:47;;;;;;;12.23;9.43;;;11.30;64.10;;;;;;5027319;28;20529;-77
2022/03/07 10:17:19;;;;;;;12.98;9.27;;;11.30;64.10;;;;;;5026744;28;20031;-77
2022/03/07 10:19:46;;;;;;;11.43;9.38;;;11.30;64.10;;;;;;5026507;28;20036;-77
2022/03/07 10:22:23;;;;;;;10.48;8.73;;;11.30;64.10;;;;;;5028463;28;20037;-76
2022/03/07 10:25:08;;;;;;;10.70;8.80;;;11.30;64.10;;;;;;5028165;28;20029;-77
2022/03/07 10:27:45;;;;;;;10.27;8.73;;;11.30;64.00;;;;;;5027996;28;20022;-77
2022/03/07 10:30:12;;;;;;;10.40;8.40;;;11.40;64.10;;;;;;5026459;28;20065;-77
2022/03/07 10:32:38;;;;;;;11.38;9.48;;;11.40;64.10;;;;;;5026808;28;20368;-77
2022/03/07 10:35:04;;;;;;;10.65;8.70;;;11.40;64.00;;;;;;5028068;28;20026;-78
2022/03/07 10:37:38;;;;;;;11.82;9.18;;;11.40;64.00;;;;;;5025852;28;20406;-78
2022/03/07 10:40:16;;;;;;;11.25;8.60;;;11.40;64.00;;;;;;5028048;28;20029;-76
2022/03/07 10:42:46;;;;;;;10.98;8.63;;;11.40;64.50;;;;;;5027710;28;20427;-76
2022/03/07 10:45:12;;;;;;;11.27;8.93;;;11.40;63.90;;;;;;5027838;28;20029;-76
2022/03/07 10:47:37;;;;;;;9.93;8.43;;;11.40;63.80;;;;;;5027873;28;20029;-78
2022/03/07 10:50:04;;;;;;;10.13;8.30;;;11.50;63.80;;;;;;5026105;28;20029;-76
2022/03/07 10:52:39;;;;;;;10.55;8.48;;;11.50;63.80;;;;;;5026631;28;20026;-78
2022/03/07 10:55:10;;;;;;;10.57;8.18;;;11.50;63.70;;;;;;5027464;28;20053;-76
2022/03/07 10:57:38;;;;;;;11.57;8.98;;;11.50;63.70;;;;;;5029926;28;20552;-77
2022/03/07 11:00:10;;;;;;;9.80;8.25;;;11.50;63.70;;;;;;5030360;28;20037;-77
2022/03/07 11:02:40;;;;;;;9.80;8.07;;;11.50;63.70;;;;;;5030715;28;20061;-76
2022/03/07 11:05:07;;;;;;;10.20;8.20;;;11.60;63.70;;;;;;5030278;28;20025;-77
2022/03/07 11:07:36;;;;;;;9.60;8.00;;;11.50;63.70;;;;;;5030401;28;20044;-77
2022/03/07 11:10:02;;;;;;;10.35;8.60;;;11.50;63.60;;;;;;5030191;28;20030;-77
2022/03/07 11:12:28;;;;;;;9.73;7.88;;;11.50;63.60;;;;;;5030096;28;20051;-77
2022/03/07 11:14:57;;;;;;;9.65;7.63;;;11.50;63.50;;;;;;5030475;28;20021;-77
2022/03/07 11:17:24;;;;;;;11.55;7.78;;;11.50;63.50;;;;;;5031625;28;20041;-77
2022/03/07 11:19:54;;;;;;;10.68;8.27;;;11.50;63.50;;;;;;5029876;28;20053;-77
2022/03/07 11:22:20;;;;;;;9.88;7.95;;;11.50;63.50;;;;;;5031181;28;20022;-76
2022/03/07 11:24:46;;;;;;;9.90;7.60;;;11.60;63.60;;;;;;5030212;28;20084;-77
2022/03/07 11:27:16;;;;;;;9.75;7.53;;;11.60;63.50;;;;;;5029923;28;20060;-77
2022/03/07 11:29:42;;;;;;;9.63;7.40;;;11.50;63.50;;;;;;5029559;28;20522;-77
2022/03/07 11:32:10;;;;;;;9.50;8.07;;;11.60;63.50;;;;;;5029700;28;20025;-78
2022/03/07 11:34:37;;;;;;;9.27;7.35;;;11.60;63.50;;;;;;5029925;28;20060;-78
2022/03/07 11:37:14;;;;;;;11.35;7.53;;;11.60;63.50;;;;;;5029849;28;20060;-78
2022/03/07 11:39:39;;;;;;;11.75;7.65;;;11.50;63.60;;;;;;5031026;28;20100;-77
2022/03/07 11:42:32;;;;;;;9.85;7.57;;;11.50;63.70;;;;;;5029761;28;20116;-78
2022/03/07 11:45:07;;;;;;;9.45;7.15;;;11.50;63.90;;;;;;5028111;28;20033;-77
2022/03/07 11:47:40;;;;;;;10.32;7.85;;;11.50;63.90;;;;;;5029906;28;20037;-76
2022/03/07 11:50:07;;;;;;;9.13;7.30;;;11.50;63.90;;;;;;5029325;28;20030;-77
2022/03/07 11:52:33;;;;;;;9.18;7.22;;;11.50;63.90;;;;;;5030906;28;20516;-78
2022/03/07 11:55:01;;;;;;;9.82;7.28;;;11.60;63.90;;;;;;5029862;28;20776;-77
2022/03/07 11:57:35;;;;;;;9.10;7.05;;;11.60;63.80;;;;;;5030497;28;20083;-77
2022/03/07 12:00:16;;;;;;;8.75;7.28;;;11.60;63.80;;;;;;5030690;28;20044;-78
2022/03/07 12:02:47;;;;;;;9.88;7.28;;;11.50;63.80;;;;;;5029365;28;20033;-78
2022/03/07 12:05:27;;;;;;;9.15;7.22;;;11.50;63.90;;;;;;5029527;28;20033;-75
2022/03/07 12:08:06;;;;;;;9.07;7.13;;;11.40;64.10;;;;;;5029302;28;20406;-77
2022/03/07 12:10:32;;;;;;;9.02;7.15;;;11.40;64.30;;;;;;5028800;28;20426;-78
2022/03/07 12:13:08;;;;;;;9.38;7.38;;;11.40;64.40;;;;;;5030599;28;20037;-76
2022/03/07 12:15:48;;;;;;;9.18;6.90;;;11.40;64.40;;;;;;5029217;28;20044;-76
2022/03/07 12:18:15;;;;;;;9.75;6.95;;;11.40;64.40;;;;;;5030253;28;20079;-76
2022/03/07 12:20:52;;;;;;;8.57;6.75;;;11.40;64.30;;;;;;5028974;28;20668;-77
2022/03/07 12:23:20;;;;;;;9.00;7.10;;;11.50;64.40;;;;;;5030209;28;20505;-77
2022/03/07 12:25:47;;;;;;;10.25;7.20;;;11.40;64.30;;;;;;5028976;28;20120;-76
2022/03/07 12:28:13;;;;;;;9.75;7.13;;;11.40;64.30;;;;;;5029080;28;20029;-78
2022/03/07 12:30:39;;;;;;;8.15;6.28;;;11.50;64.30;;;;;;5028548;28;20502;-80
2022/03/07 12:33:09;;;;;;;9.60;6.57;;;11.50;64.20;;;;;;5028935;28;20033;-76
2022/03/07 12:35:35;;;;;;;9.00;6.72;;;11.50;64.20;;;;;;5028573;28;20491;-78
2022/03/07 12:38:05;;;;;;;8.90;6.82;;;11.50;64.20;;;;;;5030131;28;20043;-78
2022/03/07 12:40:31;;;;;;;9.43;6.95;;;11.50;64.20;;;;;;5028654;28;20033;-77